Time;durP1;ratioP1;P1;durP2;ratioP2;P2;SDS_P1;SDS_P2;PMS_P1;PMS_P2;Temp;Humidity;BMP_temperature;BMP_pressure;BME280_temperature;BME280_humidity;BME280_pressure;Samples;Min_cycle;Max_cycle;Signal;HPM_P1;HPM_P2
2021/07/27 00:01:13;;;;;;;1.40;1.00;;;20.10;99.90;;;;;;7677302;23;20605;-65
2021/07/27 00:04:16;;;;;;;0.93;0.77;;;20.00;99.90;;;;;;7676663;23;20180;-65
2021/07/27 00:07:18;;;;;;;0.87;0.87;;;20.00;99.90;;;;;;7677467;23;20164;-65
2021/07/27 00:10:21;;;;;;;1.17;0.80;;;20.00;99.90;;;;;;7677685;23;20211;-65
2021/07/27 00:13:24;;;;;;;0.90;0.90;;;20.00;99.90;;;;;;7676756;23;20171;-65
2021/07/27 00:16:26;;;;;;;1.23;0.80;;;20.00;99.90;;;;;;7650859;23;20303;-65
2021/07/27 00:19:28;;;;;;;2.27;0.90;;;20.10;99.90;;;;;;7676916;23;20175;-65
2021/07/27 00:22:30;;;;;;;1.07;0.90;;;20.10;99.90;;;;;;7677231;23;20203;-65
2021/07/27 00:25:33;;;;;;;1.13;0.80;;;20.10;99.90;;;;;;7677336;23;20184;-65
2021/07/27 00:28:35;;;;;;;2.13;1.10;;;20.10;99.90;;;;;;7676588;23;20157;-65
2021/07/27 00:31:37;;;;;;;1.47;1.33;;;20.10;99.90;;;;;;7677185;23;20175;-65
2021/07/27 00:34:40;;;;;;;1.20;1.10;;;20.10;99.90;;;;;;7676713;23;20173;-65
2021/07/27 00:37:44;;;;;;;1.00;1.00;;;20.10;99.90;;;;;;7677703;23;20175;-65
2021/07/27 00:40:48;;;;;;;1.20;1.10;;;20.10;99.90;;;;;;7676486;23;20264;-65
2021/07/27 00:43:50;;;;;;;1.50;1.10;;;20.00;99.90;;;;;;7650753;23;20188;-65
2021/07/27 00:46:52;;;;;;;2.70;1.20;;;20.00;99.90;;;;;;7651227;23;20214;-65
2021/07/27 00:49:55;;;;;;;1.70;1.60;;;20.00;99.90;;;;;;7650103;23;20172;-65
2021/07/27 00:52:59;;;;;;;1.50;1.40;;;20.10;99.90;;;;;;7651009;23;20251;-65
2021/07/27 00:56:04;;;;;;;2.20;1.43;;;20.10;99.90;;;;;;7676640;23;20167;-65
2021/07/27 00:59:06;;;;;;;1.60;1.50;;;20.10;99.90;;;;;;7677224;23;20168;-65
2021/07/27 01:02:08;;;;;;;1.57;1.47;;;20.10;99.90;;;;;;7650857;23;20172;-65
2021/07/27 01:05:11;;;;;;;1.67;1.50;;;20.10;99.90;;;;;;7676488;23;20270;-65
2021/07/27 01:08:13;;;;;;;1.70;1.60;;;20.10;99.90;;;;;;7677165;23;20684;-65
2021/07/27 01:11:23;;;;;;;1.80;1.60;;;20.10;99.90;;;;;;7650036;23;20624;-65
2021/07/27 01:14:26;;;;;;;2.50;1.90;;;20.10;99.90;;;;;;7676944;23;20156;-65
2021/07/27 01:17:29;;;;;;;1.90;1.77;;;20.10;99.90;;;;;;7677045;23;20547;-65
2021/07/27 01:40:29;;;;;;;2.07;1.87;;;19.90;99.90;;;;;;7676436;23;20163;-65
2021/07/27 01:43:34;;;;;;;2.13;1.93;;;19.90;99.90;;;;;;7676675;23;20184;-65
2021/07/27 01:46:36;;;;;;;2.00;1.80;;;19.80;99.90;;;;;;7677343;23;20604;-65
2021/07/27 01:49:41;;;;;;;2.70;1.73;;;19.90;99.90;;;;;;7676268;23;20230;-65
2021/07/27 01:52:47;;;;;;;2.13;1.80;;;19.90;99.90;;;;;;7650406;23;20251;-65
2021/07/27 01:55:49;;;;;;;1.83;1.30;;;19.90;99.90;;;;;;7677840;23;20216;-65
2021/07/27 01:58:51;;;;;;;1.83;1.67;;;19.80;99.90;;;;;;7678971;23;20172;-65
2021/07/27 02:01:56;;;;;;;1.60;1.50;;;19.80;99.90;;;;;;7679119;23;20222;-65
2021/07/27 02:04:59;;;;;;;3.43;1.70;;;19.70;99.90;;;;;;7652292;23;20196;-65
2021/07/27 02:08:01;;;;;;;1.60;1.50;;;19.70;99.90;;;;;;7652753;23;20238;-65
2021/07/27 02:11:06;;;;;;;1.73;1.63;;;19.70;99.90;;;;;;7651853;23;20187;-65
2021/07/27 02:14:12;;;;;;;2.27;1.70;;;19.80;99.90;;;;;;7679233;23;20160;-65
2021/07/27 02:17:15;;;;;;;1.63;1.53;;;19.80;99.90;;;;;;7651910;23;20172;-66
2021/07/27 02:20:17;;;;;;;2.10;1.60;;;19.80;99.90;;;;;;7678763;23;20616;-65
2021/07/27 02:23:20;;;;;;;2.23;1.73;;;19.90;99.90;;;;;;7678554;23;20167;-65
2021/07/27 02:26:22;;;;;;;1.73;1.60;;;19.90;99.90;;;;;;7651833;23;20273;-65
2021/07/27 02:29:24;;;;;;;1.67;1.57;;;19.90;99.90;;;;;;7678761;23;20164;-65
2021/07/27 02:32:27;;;;;;;2.10;1.90;;;19.90;99.90;;;;;;7651566;23;20169;-65
2021/07/27 02:35:35;;;;;;;1.97;1.73;;;19.90;99.90;;;;;;7678759;23;20167;-65
2021/07/27 02:38:37;;;;;;;3.07;1.70;;;19.90;99.90;;;;;;7678836;23;20149;-65
2021/07/27 02:41:39;;;;;;;1.73;1.57;;;20.00;99.90;;;;;;7677749;23;20255;-65
2021/07/27 02:44:42;;;;;;;2.83;1.50;;;20.00;99.90;;;;;;7652270;23;20190;-65
2021/07/27 02:47:44;;;;;;;2.10;1.83;;;20.10;99.90;;;;;;7677946;23;20160;-65
2021/07/27 02:50:48;;;;;;;1.87;1.70;;;20.10;99.90;;;;;;7678610;23;20621;-65
2021/07/27 02:53:51;;;;;;;1.80;1.70;;;20.10;99.90;;;;;;7651885;23;20176;-65
2021/07/27 02:56:55;;;;;;;1.90;1.70;;;20.10;99.90;;;;;;7678180;23;20168;-65
2021/07/27 03:00:00;;;;;;;1.70;1.60;;;20.10;99.90;;;;;;7678429;23;20167;-65
2021/07/27 03:03:03;;;;;;;1.80;1.57;;;20.10;99.90;;;;;;7677632;23;20186;-65
2021/07/27 03:06:05;;;;;;;1.53;1.43;;;20.10;99.90;;;;;;7651354;23;20200;-65
2021/07/27 03:09:23;;;;;;;2.03;1.67;;;20.10;99.90;;;;;;7677429;23;20161;-65
2021/07/27 03:12:25;;;;;;;1.80;1.50;;;20.10;99.90;;;;;;7678368;23;20145;-65
2021/07/27 03:15:29;;;;;;;1.90;1.73;;;20.20;99.90;;;;;;7678211;23;20164;-65
2021/07/27 03:18:32;;;;;;;1.80;1.60;;;20.20;99.90;;;;;;7677462;23;20168;-65
2021/07/27 03:21:34;;;;;;;2.03;1.70;;;20.20;99.90;;;;;;7651479;23;20501;-65
2021/07/27 03:24:36;;;;;;;1.67;1.57;;;20.10;99.90;;;;;;7626358;23;20192;-65
2021/07/27 03:27:39;;;;;;;2.43;1.40;;;20.00;99.90;;;;;;7678027;23;20167;-65
2021/07/27 03:30:41;;;;;;;1.73;1.60;;;19.90;99.90;;;;;;7677935;23;20187;-65
2021/07/27 03:33:43;;;;;;;1.60;1.50;;;19.80;99.90;;;;;;7677219;23;20238;-65
2021/07/27 03:36:47;;;;;;;3.60;1.60;;;19.70;99.90;;;;;;7651563;23;20187;-65
2021/07/27 03:39:49;;;;;;;2.47;1.67;;;19.60;99.90;;;;;;7677237;23;20184;-65
2021/07/27 03:42:51;;;;;;;2.13;1.50;;;19.60;99.90;;;;;;7677642;23;20180;-65
2021/07/27 03:45:53;;;;;;;2.10;1.60;;;19.60;99.90;;;;;;7677205;23;20194;-65
2021/07/27 03:48:56;;;;;;;1.50;1.40;;;19.40;99.90;;;;;;7651532;23;20168;-65
2021/07/27 03:52:03;;;;;;;1.87;1.77;;;19.30;99.90;;;;;;7651165;23;20667;-65
2021/07/27 03:55:05;;;;;;;1.57;1.47;;;19.20;99.90;;;;;;7677620;23;20247;-65
2021/07/27 03:58:07;;;;;;;2.40;2.10;;;19.10;99.90;;;;;;7677274;23;20199;-66
2021/07/27 04:01:10;;;;;;;2.33;1.50;;;19.00;99.90;;;;;;7676862;23;20639;-65
2021/07/27 04:04:13;;;;;;;2.47;1.70;;;19.00;99.90;;;;;;7650888;23;20258;-65
2021/07/27 04:07:18;;;;;;;1.93;1.73;;;19.10;99.90;;;;;;7677131;23;20537;-65
2021/07/27 04:10:20;;;;;;;2.23;1.83;;;19.10;99.90;;;;;;7676588;23;20156;-65
2021/07/27 04:13:22;;;;;;;1.93;1.73;;;19.10;99.90;;;;;;7677022;23;20159;-65
2021/07/27 04:16:25;;;;;;;3.87;1.87;;;19.10;99.90;;;;;;7650770;23;20199;-65
2021/07/27 04:19:27;;;;;;;2.07;1.70;;;19.10;99.90;;;;;;7677223;23;20164;-65
2021/07/27 04:22:29;;;;;;;2.00;1.70;;;19.20;99.90;;;;;;7676836;23;20199;-65
2021/07/27 04:25:32;;;;;;;2.67;1.63;;;19.30;99.90;;;;;;7676195;23;20192;-65
2021/07/27 04:28:35;;;;;;;3.03;2.00;;;19.30;99.90;;;;;;7650887;23;20558;-65
2021/07/27 04:31:49;;;;;;;1.40;1.30;;;19.40;99.90;;;;;;7625396;23;20175;-65
2021/07/27 04:34:52;;;;;;;1.73;1.60;;;19.50;99.90;;;;;;7676948;23;20160;-65
2021/07/27 04:37:57;;;;;;;1.67;1.40;;;19.50;99.90;;;;;;7650135;23;20168;-65
2021/07/27 04:41:04;;;;;;;2.33;1.60;;;19.50;99.90;;;;;;7650990;23;20159;-65
2021/07/27 04:44:06;;;;;;;2.10;1.90;;;19.40;99.90;;;;;;7676631;23;20157;-65
2021/07/27 04:47:08;;;;;;;2.13;1.50;;;19.40;99.90;;;;;;7676293;23;20167;-65
2021/07/27 04:50:11;;;;;;;1.83;1.63;;;19.50;99.90;;;;;;7650350;23;20494;-65
2021/07/27 04:53:14;;;;;;;1.90;1.70;;;19.60;99.90;;;;;;7676074;23;20205;-65
2021/07/27 04:56:17;;;;;;;2.07;1.60;;;19.70;99.90;;;;;;7676897;23;20171;-65
2021/07/27 04:59:22;;;;;;;2.30;1.60;;;19.80;99.90;;;;;;7676878;23;20164;-65
2021/07/27 05:02:24;;;;;;;2.10;1.67;;;19.80;99.90;;;;;;7676063;23;20274;-65
2021/07/27 05:05:27;;;;;;;1.53;1.43;;;19.90;99.90;;;;;;7676254;23;20195;-65
2021/07/27 05:08:29;;;;;;;1.70;1.60;;;19.90;99.90;;;;;;7676273;23;20160;-65
2021/07/27 05:11:31;;;;;;;2.20;1.87;;;19.90;99.90;;;;;;7676612;23;20257;-65
2021/07/27 05:14:35;;;;;;;1.90;1.70;;;19.90;99.90;;;;;;7676010;23;20627;-65
2021/07/27 05:17:39;;;;;;;3.40;1.83;;;19.90;99.90;;;;;;7676741;23;20168;-65
2021/07/27 05:20:42;;;;;;;1.90;1.70;;;19.80;99.90;;;;;;7676584;23;20195;-65
2021/07/27 05:23:44;;;;;;;2.17;1.97;;;19.80;99.90;;;;;;7676032;23;20487;-65
2021/07/27 05:26:47;;;;;;;1.83;1.73;;;19.70;99.90;;;;;;7650130;23;20188;-65
2021/07/27 05:29:50;;;;;;;2.00;1.63;;;19.80;99.90;;;;;;7676828;23;20188;-65
2021/07/27 05:32:52;;;;;;;1.87;1.73;;;19.80;99.90;;;;;;7679285;23;20161;-65
2021/07/27 05:35:55;;;;;;;2.10;1.73;;;20.00;99.90;;;;;;7652653;23;20172;-66
2021/07/27 05:38:57;;;;;;;2.03;1.80;;;20.20;99.90;;;;;;7678419;23;20605;-65
2021/07/27 05:41:59;;;;;;;4.07;1.70;;;20.30;99.90;;;;;;7679252;23;20613;-65
2021/07/27 05:45:02;;;;;;;1.93;1.70;;;20.50;99.90;;;;;;7679144;23;20244;-65
2021/07/27 05:48:04;;;;;;;2.53;2.20;;;20.60;99.90;;;;;;7678717;23;20164;-65
2021/07/27 05:51:10;;;;;;;1.87;1.77;;;20.70;99.90;;;;;;7678843;23;20184;-65
2021/07/27 05:54:12;;;;;;;2.13;1.93;;;20.80;99.90;;;;;;7678205;23;20232;-65
2021/07/27 05:57:15;;;;;;;2.00;1.80;;;20.90;99.90;;;;;;7678768;23;20160;-65
2021/07/27 06:00:18;;;;;;;2.67;1.73;;;20.90;99.90;;;;;;7678189;23;20234;-65
2021/07/27 06:03:20;;;;;;;2.40;1.50;;;20.90;99.90;;;;;;7678435;23;20558;-65
2021/07/27 06:06:22;;;;;;;1.80;1.70;;;20.80;99.90;;;;;;7651391;23;20203;-65
2021/07/27 06:09:25;;;;;;;1.83;1.70;;;20.80;99.90;;;;;;7678618;23;20247;-65
2021/07/27 06:12:27;;;;;;;1.80;1.70;;;20.70;99.90;;;;;;7652163;23;20500;-65
2021/07/27 06:15:29;;;;;;;1.93;1.73;;;20.70;99.90;;;;;;7651792;23;20164;-65
2021/07/27 06:18:35;;;;;;;1.83;1.70;;;20.70;99.90;;;;;;7678276;23;20485;-65
2021/07/27 06:21:38;;;;;;;2.20;2.00;;;20.80;99.90;;;;;;7651268;23;20672;-65
2021/07/27 06:24:41;;;;;;;2.47;2.27;;;20.80;99.90;;;;;;7678145;23;20184;-65
2021/07/27 06:27:43;;;;;;;2.20;2.00;;;20.90;99.90;;;;;;7678524;23;20164;-66
2021/07/27 06:30:45;;;;;;;2.30;2.10;;;20.90;99.90;;;;;;7627044;23;20168;-65
2021/07/27 06:33:47;;;;;;;2.40;2.20;;;21.00;99.90;;;;;;7652118;23;20161;-65
2021/07/27 06:36:50;;;;;;;2.20;1.90;;;21.10;99.90;;;;;;7677724;23;20183;-65
2021/07/27 06:39:52;;;;;;;3.23;2.40;;;21.20;99.90;;;;;;7678279;23;20164;-65
2021/07/27 06:42:56;;;;;;;2.90;2.50;;;21.30;99.90;;;;;;7651510;23;20461;-65
2021/07/27 06:45:58;;;;;;;2.17;1.97;;;21.50;99.90;;;;;;7677384;23;20184;-66
2021/07/27 06:49:00;;;;;;;2.97;2.60;;;21.70;99.90;;;;;;7677948;23;20218;-65
2021/07/27 06:52:03;;;;;;;2.43;2.10;;;21.80;99.90;;;;;;7677589;23;20176;-65
2021/07/27 06:55:06;;;;;;;2.53;2.27;;;22.00;99.90;;;;;;7678042;23;20214;-65
2021/07/27 06:58:08;;;;;;;2.60;2.20;;;22.20;99.90;;;;;;7677584;23;20219;-65
2021/07/27 07:01:12;;;;;;;2.40;2.20;;;22.50;99.90;;;;;;7677795;23;20226;-65
2021/07/27 07:04:14;;;;;;;2.27;2.00;;;22.70;99.90;;;;;;7677773;23;20295;-65
2021/07/27 07:07:16;;;;;;;2.30;2.10;;;23.00;99.90;;;;;;7651274;23;20523;-65
2021/07/27 07:10:19;;;;;;;2.50;2.30;;;23.30;99.90;;;;;;7652008;23;20188;-66
2021/07/27 07:13:21;;;;;;;2.90;2.40;;;23.60;99.90;;;;;;7677213;23;20608;-65
2021/07/27 07:16:23;;;;;;;3.63;2.87;;;23.80;98.80;;;;;;7678055;23;20176;-65
2021/07/27 07:19:27;;;;;;;2.43;2.10;;;24.10;97.70;;;;;;7651558;23;20620;-65
2021/07/27 07:22:30;;;;;;;2.30;2.10;;;24.20;96.30;;;;;;7677229;23;20196;-65
2021/07/27 07:25:32;;;;;;;2.30;2.10;;;24.10;96.70;;;;;;7651183;23;20204;-65
2021/07/27 07:28:37;;;;;;;3.00;2.60;;;23.90;97.10;;;;;;7677198;23;20164;-65
2021/07/27 07:31:39;;;;;;;2.33;2.13;;;23.80;97.50;;;;;;7677532;23;20475;-66
2021/07/27 07:34:42;;;;;;;3.00;2.20;;;23.90;97.10;;;;;;7677478;23;20184;-65
2021/07/27 07:37:44;;;;;;;3.47;2.10;;;24.20;96.40;;;;;;7676900;23;20188;-65
2021/07/27 07:40:46;;;;;;;2.30;2.07;;;24.60;95.70;;;;;;7651135;23;20168;-66
2021/07/27 07:43:49;;;;;;;2.30;2.10;;;25.10;95.70;;;;;;7676830;23;20168;-65
2021/07/27 07:46:51;;;;;;;1.97;1.80;;;25.50;95.00;;;;;;7677158;23;20243;-65
2021/07/27 07:49:58;;;;;;;2.27;2.07;;;25.80;95.10;;;;;;7651102;23;20192;-66
2021/07/27 07:53:02;;;;;;;3.70;2.13;;;26.10;94.20;;;;;;7650746;23;20270;-66
2021/07/27 07:56:11;;;;;;;2.03;1.83;;;26.40;91.50;;;;;;7677194;23;20171;-66
2021/07/27 07:59:13;;;;;;;2.65;2.22;;;26.70;90.50;;;;;;7676737;23;20204;-65
2021/07/27 08:02:16;;;;;;;2.30;2.10;;;27.00;89.10;;;;;;7677317;23;20164;-65
2021/07/27 08:05:20;;;;;;;2.42;2.22;;;27.40;86.80;;;;;;7676465;23;20586;-66
2021/07/27 08:08:22;;;;;;;2.20;2.00;;;27.70;85.40;;;;;;7650757;23;20483;-66
2021/07/27 08:11:24;;;;;;;2.55;2.35;;;27.90;83.70;;;;;;7677546;23;20164;-65
2021/07/27 08:14:28;;;;;;;2.20;2.00;;;28.20;82.90;;;;;;7676317;23;20486;-65
2021/07/27 08:17:30;;;;;;;3.13;2.00;;;28.40;84.00;;;;;;7677391;23;20164;-65
2021/07/27 08:20:32;;;;;;;2.38;2.17;;;28.50;83.30;;;;;;7676418;23;20196;-66
2021/07/27 08:23:40;;;;;;;2.78;2.33;;;28.60;82.70;;;;;;7675355;23;20164;-65
2021/07/27 08:26:42;;;;;;;2.60;2.40;;;28.70;80.40;;;;;;7676300;23;20200;-66
2021/07/27 08:29:45;;;;;;;2.97;2.33;;;28.80;83.00;;;;;;7676234;23;20491;-66
2021/07/27 08:32:52;;;;;;;2.10;2.00;;;29.00;82.20;;;;;;7650974;23;20315;-66
2021/07/27 08:35:54;;;;;;;2.05;1.95;;;29.30;81.40;;;;;;7675947;23;20160;-66
2021/07/27 08:38:57;;;;;;;2.30;2.10;;;29.60;80.00;;;;;;7676870;23;20644;-66
2021/07/27 08:42:01;;;;;;;4.05;2.30;;;29.80;79.20;;;;;;7649071;23;20635;-66
2021/07/27 08:45:05;;;;;;;3.03;2.72;;;30.20;79.70;;;;;;7676560;23;20190;-66
2021/07/27 08:48:08;;;;;;;2.17;2.00;;;30.30;77.10;;;;;;7676723;23;20172;-66
2021/07/27 08:51:12;;;;;;;2.75;2.13;;;30.40;76.80;;;;;;7676542;23;20167;-66
2021/07/27 08:54:16;;;;;;;2.60;2.40;;;30.60;76.10;;;;;;7650815;23;20608;-66
2021/07/27 08:57:18;;;;;;;2.83;2.55;;;30.80;75.70;;;;;;7676084;23;20163;-66
2021/07/27 09:00:21;;;;;;;3.05;2.70;;;30.80;71.90;;;;;;7677105;23;20172;-66
2021/07/27 09:03:25;;;;;;;2.80;2.60;;;31.00;71.10;;;;;;7676789;23;20218;-66
2021/07/27 09:06:28;;;;;;;2.95;2.75;;;31.20;68.70;;;;;;7651870;23;20207;-66
2021/07/27 09:09:35;;;;;;;3.00;2.55;;;31.20;70.90;;;;;;7653229;23;20164;-66
2021/07/27 09:12:37;;;;;;;3.08;2.53;;;31.30;69.10;;;;;;7678753;23;20159;-66
2021/07/27 09:15:42;;;;;;;2.55;2.35;;;31.50;70.70;;;;;;7652551;23;20686;-66
2021/07/27 09:18:44;;;;;;;2.75;2.50;;;31.80;71.10;;;;;;7678746;23;20163;-66
2021/07/27 09:21:47;;;;;;;3.53;2.90;;;32.10;70.00;;;;;;7679000;23;20192;-66
2021/07/27 09:24:49;;;;;;;4.13;2.78;;;32.20;64.10;;;;;;7679050;23;20169;-66
2021/07/27 09:28:08;;;;;;;3.03;2.80;;;32.30;62.50;;;;;;7678498;23;20504;-66
2021/07/27 09:31:10;;;;;;;2.80;2.60;;;32.30;59.70;;;;;;7628243;23;20195;-67
2021/07/27 09:34:13;;;;;;;4.32;2.83;;;32.20;59.70;;;;;;7651945;23;20617;-66
2021/07/27 09:37:17;;;;;;;2.88;2.60;;;32.20;63.80;;;;;;7678928;23;20625;-66
2021/07/27 09:40:20;;;;;;;2.97;2.70;;;32.50;60.90;;;;;;7678847;23;20609;-66
2021/07/27 09:43:24;;;;;;;3.08;2.75;;;32.80;59.90;;;;;;7652067;23;20195;-67
2021/07/27 09:46:27;;;;;;;3.20;2.90;;;32.90;59.00;;;;;;7652136;23;20534;-66
2021/07/27 09:49:30;;;;;;;2.83;2.63;;;33.10;58.70;;;;;;7678304;23;20631;-66
2021/07/27 09:52:33;;;;;;;2.80;2.60;;;33.30;58.10;;;;;;7678895;23;20176;-66
2021/07/27 09:55:37;;;;;;;3.10;2.90;;;33.40;57.40;;;;;;7678624;23;20215;-66
2021/07/27 09:58:40;;;;;;;2.83;2.63;;;33.40;57.40;;;;;;7651936;23;20172;-66
2021/07/27 10:01:48;;;;;;;3.53;3.15;;;33.60;59.50;;;;;;7678705;23;20172;-67
2021/07/27 10:04:52;;;;;;;2.95;2.75;;;33.70;58.00;;;;;;7627192;23;20192;-66
2021/07/27 10:08:25;;;;;;;3.50;3.20;;;33.60;58.00;;;;;;7652127;23;20676;-67
2021/07/27 10:12:15;;;;;;;3.28;2.97;;;33.70;56.70;;;;;;7651354;23;20168;-66
2021/07/27 10:15:18;;;;;;;3.67;3.00;;;33.90;56.70;;;;;;7565035;23;20181;-66
2021/07/27 10:18:29;;;;;;;2.85;2.60;;;34.10;56.90;;;;;;7564626;23;20179;-67
2021/07/27 10:21:32;;;;;;;3.53;3.13;;;33.90;57.40;;;;;;7565120;23;20205;-66
2021/07/27 10:24:41;;;;;;;3.17;2.92;;;33.70;57.70;;;;;;7540723;23;20185;-66
2021/07/27 10:27:54;;;;;;;4.25;2.90;;;33.90;57.60;;;;;;7540252;23;20273;-67
2021/07/27 10:31:07;;;;;;;4.03;2.78;;;34.20;57.30;;;;;;7565151;23;20171;-66
2021/07/27 10:34:12;;;;;;;2.70;2.50;;;34.40;57.10;;;;;;7564496;23;20223;-67
2021/07/27 10:37:18;;;;;;;2.47;2.28;;;34.70;57.40;;;;;;7565067;23;20194;-66
2021/07/27 10:40:30;;;;;;;3.90;3.35;;;35.00;57.30;;;;;;7564507;23;20233;-67
2021/07/27 10:43:32;;;;;;;3.40;3.10;;;34.90;52.40;;;;;;7565058;23;20174;-67
2021/07/27 10:46:37;;;;;;;3.10;2.90;;;34.60;54.10;;;;;;7540710;23;20209;-67
2021/07/27 10:49:40;;;;;;;3.50;3.20;;;34.90;55.80;;;;;;7565579;23;20166;-67
2021/07/27 10:52:46;;;;;;;3.55;2.97;;;35.30;54.30;;;;;;7641074;23;20161;-67
2021/07/27 10:55:52;;;;;;;3.63;3.33;;;35.30;51.70;;;;;;7640576;23;20216;-67
2021/07/27 10:58:55;;;;;;;3.30;3.10;;;34.90;51.90;;;;;;7641256;23;20168;-67
2021/07/27 11:01:59;;;;;;;3.40;3.10;;;34.60;50.10;;;;;;7641145;23;20543;-67
2021/07/27 11:05:02;;;;;;;3.42;3.10;;;34.40;51.00;;;;;;7640318;23;20659;-67
2021/07/27 11:08:04;;;;;;;3.50;3.20;;;34.30;50.90;;;;;;7640856;23;20553;-67
2021/07/27 11:11:10;;;;;;;3.00;2.75;;;34.30;51.90;;;;;;7640424;23;20161;-67
2021/07/27 11:14:22;;;;;;;3.47;3.17;;;34.60;50.70;;;;;;7640891;23;20158;-67
2021/07/27 11:17:25;;;;;;;3.30;3.00;;;34.90;51.20;;;;;;7640329;23;20161;-66
2021/07/27 11:20:35;;;;;;;3.58;3.28;;;35.20;50.30;;;;;;7648559;23;20562;-67
2021/07/27 11:23:40;;;;;;;3.95;2.55;;;35.10;50.70;;;;;;7677596;23;20168;-67
2021/07/27 11:26:42;;;;;;;3.60;3.30;;;34.90;52.70;;;;;;7676926;23;20529;-67
2021/07/27 11:29:55;;;;;;;3.30;3.03;;;35.10;52.20;;;;;;7651599;23;20624;-67
2021/07/27 11:33:07;;;;;;;3.50;3.17;;;35.20;52.40;;;;;;7626727;23;20616;-67
2021/07/27 11:36:23;;;;;;;3.33;3.00;;;35.40;53.20;;;;;;7677237;23;20159;-67
2021/07/27 11:39:25;;;;;;;3.17;2.97;;;35.50;52.80;;;;;;7677028;23;20157;-67
2021/07/27 11:42:33;;;;;;;3.28;2.97;;;35.50;50.00;;;;;;7651154;23;20172;-67
2021/07/27 11:45:42;;;;;;;4.50;3.40;;;35.30;49.50;;;;;;7677283;23;20172;-67
2021/07/27 11:48:54;;;;;;;4.05;2.83;;;35.20;48.50;;;;;;7650323;23;20617;-67
2021/07/27 11:52:05;;;;;;;5.13;3.50;;;35.00;47.70;;;;;;7650920;23;20168;-67
2021/07/27 11:55:08;;;;;;;3.10;2.85;;;34.80;48.30;;;;;;7625824;23;20586;-67
2021/07/27 11:58:12;;;;;;;3.33;3.03;;;34.50;47.50;;;;;;7677343;23;20175;-67
2021/07/27 12:01:15;;;;;;;5.10;2.90;;;34.70;48.10;;;;;;7677284;23;20164;-67
2021/07/27 12:04:19;;;;;;;3.22;2.92;;;35.00;48.50;;;;;;7676430;23;20648;-67
2021/07/27 12:07:23;;;;;;;3.58;2.95;;;35.20;47.40;;;;;;7650618;23;20200;-67
2021/07/27 12:10:25;;;;;;;3.22;2.88;;;35.60;49.60;;;;;;7650591;23;20164;-67
2021/07/27 12:13:29;;;;;;;5.65;3.88;;;35.70;47.50;;;;;;7650694;23;20171;-67
2021/07/27 12:16:32;;;;;;;3.83;3.47;;;35.40;46.90;;;;;;7649917;23;20173;-67
2021/07/27 12:19:34;;;;;;;4.63;3.33;;;35.10;47.00;;;;;;7650932;23;20242;-67
2021/07/27 12:22:36;;;;;;;5.45;3.17;;;34.60;46.40;;;;;;7677805;23;20262;-67
2021/07/27 12:25:39;;;;;;;4.15;3.30;;;34.30;47.80;;;;;;7676248;23;20164;-67
2021/07/27 12:28:41;;;;;;;3.40;3.10;;;34.70;47.70;;;;;;7650599;23;20255;-67
2021/07/27 12:31:43;;;;;;;4.20;3.20;;;35.40;47.60;;;;;;7676649;23;20523;-67
2021/07/27 12:34:47;;;;;;;5.00;3.28;;;35.60;46.20;;;;;;7676721;23;20164;-67
2021/07/27 12:37:49;;;;;;;3.75;3.20;;;35.70;45.80;;;;;;7677317;23;20254;-67
2021/07/27 12:40:51;;;;;;;3.28;2.70;;;35.70;46.40;;;;;;7676499;23;20191;-67
2021/07/27 12:43:54;;;;;;;5.32;3.30;;;35.90;47.90;;;;;;7650243;23;20180;-66
2021/07/27 12:46:58;;;;;;;4.18;3.67;;;35.80;47.50;;;;;;7649706;23;20266;-67
2021/07/27 12:50:00;;;;;;;5.65;3.15;;;36.00;47.80;;;;;;7676913;23;20164;-67
2021/07/27 12:53:02;;;;;;;4.95;3.22;;;36.10;49.40;;;;;;7650515;23;20179;-67
2021/07/27 12:56:05;;;;;;;3.60;3.22;;;36.50;48.20;;;;;;7676190;23;20171;-67
2021/07/27 12:59:08;;;;;;;4.55;3.15;;;36.10;46.80;;;;;;7650432;23;20655;-67
2021/07/27 13:02:10;;;;;;;6.40;3.33;;;35.90;46.00;;;;;;7676424;23;20200;-67
2021/07/27 13:05:13;;;;;;;3.78;3.33;;;35.70;46.50;;;;;;7676486;23;20196;-67
2021/07/27 13:08:15;;;;;;;5.68;3.80;;;35.90;47.70;;;;;;7676088;23;20238;-67
2021/07/27 13:11:17;;;;;;;4.20;3.53;;;35.90;46.50;;;;;;7676650;23;20160;-67
2021/07/27 13:14:20;;;;;;;6.47;3.25;;;36.00;44.90;;;;;;7650162;23;20194;-67
2021/07/27 13:17:23;;;;;;;6.50;3.60;;;35.50;46.20;;;;;;7676395;23;20195;-68
2021/07/27 13:20:26;;;;;;;6.50;3.60;;;35.10;46.40;;;;;;7676478;23;20196;-67
2021/07/27 13:23:28;;;;;;;5.93;3.53;;;35.00;46.80;;;;;;7676150;23;20168;-66
2021/07/27 13:26:32;;;;;;;4.75;3.63;;;35.10;46.70;;;;;;7676363;23;20663;-67
2021/07/27 13:29:38;;;;;;;4.78;3.30;;;35.20;46.90;;;;;;7676611;23;20165;-67
2021/07/27 13:32:41;;;;;;;4.00;3.33;;;35.50;47.20;;;;;;7675966;23;20168;-67
2021/07/27 13:35:43;;;;;;;3.92;3.20;;;35.70;47.10;;;;;;7676304;23;20164;-66
2021/07/27 13:38:45;;;;;;;5.45;3.50;;;35.60;46.80;;;;;;7650164;23;20607;-67
2021/07/27 13:41:48;;;;;;;5.43;3.53;;;35.70;47.40;;;;;;7676532;23;20243;-66
2021/07/27 13:44:50;;;;;;;4.13;3.30;;;35.70;47.30;;;;;;7676647;23;20164;-66
2021/07/27 13:47:54;;;;;;;6.05;3.92;;;35.70;47.70;;;;;;7649478;23;20184;-67
2021/07/27 13:50:56;;;;;;;3.70;3.40;;;36.10;46.60;;;;;;7677713;23;20170;-67
2021/07/27 13:54:01;;;;;;;4.75;3.50;;;35.90;46.70;;;;;;7627881;23;20164;-66
2021/07/27 13:57:05;;;;;;;4.60;3.83;;;36.10;47.00;;;;;;7678987;23;20168;-66
2021/07/27 14:00:12;;;;;;;4.43;3.53;;;36.70;46.10;;;;;;7651967;23;20168;-67
2021/07/27 14:03:15;;;;;;;3.92;3.58;;;37.00;45.80;;;;;;7652579;23;20660;-67
2021/07/27 14:06:17;;;;;;;5.43;3.85;;;37.70;45.20;;;;;;7678313;23;20215;-67
2021/07/27 14:09:20;;;;;;;3.70;3.22;;;38.00;44.40;;;;;;7678206;23;20601;-66
2021/07/27 14:12:22;;;;;;;4.22;3.35;;;38.20;44.90;;;;;;7678628;23;20160;-67
2021/07/27 14:15:25;;;;;;;4.53;3.20;;;38.60;43.40;;;;;;7677779;23;20480;-67
2021/07/27 14:18:27;;;;;;;3.75;3.45;;;38.80;42.90;;;;;;7678872;23;20240;-67
2021/07/27 14:21:30;;;;;;;4.03;3.65;;;38.90;42.40;;;;;;7678551;23;20200;-67
2021/07/27 14:24:32;;;;;;;4.65;3.78;;;38.60;42.30;;;;;;7677929;23;20168;-67
2021/07/27 14:27:35;;;;;;;4.28;3.55;;;38.30;42.80;;;;;;7678413;23;20252;-66
2021/07/27 14:30:37;;;;;;;4.40;4.00;;;38.10;43.20;;;;;;7677778;23;20160;-66
2021/07/27 14:33:39;;;;;;;4.13;3.13;;;38.00;43.00;;;;;;7678411;23;20164;-66
2021/07/27 14:36:41;;;;;;;6.88;3.78;;;38.20;42.20;;;;;;7651854;23;20176;-66
2021/07/27 14:39:44;;;;;;;3.70;3.40;;;38.50;42.30;;;;;;7678032;23;20168;-66
2021/07/27 14:42:46;;;;;;;5.63;3.75;;;38.20;42.70;;;;;;7678399;23;20164;-66
2021/07/27 14:45:48;;;;;;;3.65;3.20;;;37.40;43.30;;;;;;7651253;23;20164;-66
2021/07/27 14:48:51;;;;;;;6.93;3.40;;;36.70;44.20;;;;;;7678130;23;20191;-66
2021/07/27 14:51:53;;;;;;;3.47;3.17;;;36.20;45.30;;;;;;7677659;23;20168;-66
2021/07/27 14:54:55;;;;;;;3.83;3.35;;;36.00;48.00;;;;;;7651989;23;20214;-66
2021/07/27 14:57:58;;;;;;;4.65;3.20;;;36.10;47.90;;;;;;7678210;23;20164;-66
2021/07/27 15:01:00;;;;;;;6.28;4.10;;;36.20;47.50;;;;;;7677350;23;20523;-67
2021/07/27 15:04:03;;;;;;;2.95;2.70;;;36.60;49.40;;;;;;7678053;23;20252;-66
2021/07/27 15:07:06;;;;;;;4.78;3.65;;;36.90;49.10;;;;;;7677132;23;20520;-66
2021/07/27 15:10:13;;;;;;;5.85;3.22;;;37.00;47.00;;;;;;7678145;23;20164;-66
2021/07/27 15:13:15;;;;;;;4.72;3.13;;;37.10;45.00;;;;;;7677930;23;20648;-66
2021/07/27 15:16:18;;;;;;;3.45;3.03;;;36.80;44.60;;;;;;7650861;23;20484;-66
2021/07/27 15:19:21;;;;;;;3.90;3.50;;;36.40;48.50;;;;;;7677996;23;20214;-66
2021/07/27 15:22:23;;;;;;;4.28;3.22;;;35.80;50.90;;;;;;7677138;23;20202;-66
2021/07/27 15:25:28;;;;;;;4.15;3.28;;;34.90;50.50;;;;;;7677561;23;20184;-66
2021/07/27 15:28:30;;;;;;;4.80;3.28;;;34.10;52.30;;;;;;7677542;23;20215;-66
2021/07/27 15:31:32;;;;;;;4.75;3.67;;;33.50;53.70;;;;;;7677522;23;20171;-66
2021/07/27 15:34:35;;;;;;;4.43;3.42;;;33.10;54.70;;;;;;7677615;23;20164;-66
2021/07/27 15:37:40;;;;;;;4.60;3.20;;;32.60;55.20;;;;;;7676980;23;20174;-66
2021/07/27 15:40:43;;;;;;;4.90;3.58;;;32.40;55.80;;;;;;7677574;23;20168;-66
2021/07/27 15:43:47;;;;;;;5.50;3.30;;;32.40;56.10;;;;;;7626075;23;20191;-66
2021/07/27 15:46:51;;;;;;;4.45;3.22;;;32.40;56.30;;;;;;7677214;23;20190;-66
2021/07/27 15:49:54;;;;;;;3.53;3.22;;;32.30;56.10;;;;;;7677931;23;20171;-66
2021/07/27 15:52:58;;;;;;;2.90;2.70;;;32.10;56.90;;;;;;7677331;23;20232;-66
2021/07/27 15:56:00;;;;;;;5.75;2.97;;;32.00;56.80;;;;;;7677287;23;20239;-66
2021/07/27 15:59:03;;;;;;;4.32;3.17;;;31.90;57.20;;;;;;7650595;23;20291;-66
2021/07/27 16:02:05;;;;;;;3.60;3.00;;;31.80;56.90;;;;;;7677449;23;20168;-66
2021/07/27 16:05:08;;;;;;;5.50;3.35;;;31.70;57.30;;;;;;7677249;23;20184;-66
2021/07/27 16:08:11;;;;;;;5.00;3.28;;;31.50;57.80;;;;;;7676521;23;20193;-66
2021/07/27 16:11:14;;;;;;;4.75;3.17;;;31.30;58.40;;;;;;7650956;23;20333;-66
2021/07/27 16:14:17;;;;;;;4.43;3.13;;;31.00;58.70;;;;;;7676481;23;20164;-66
2021/07/27 16:17:19;;;;;;;4.60;3.40;;;30.90;59.70;;;;;;7677160;23;20172;-66